Portland, Michigan
Current Conditions -  °F | °C
As of 8:33 AM on Sunday 23 Nov 2014 (Local Time) from KY70 Reporting Station
Overcast Overcast  
Wind Chill: 43°   Ceiling: 3200
Heat Index: 48°   Visibility: 10mi
Dew Point: 45°   Wind: 13mph
Humidity: 89%   Direction: 190°S
Pressure: 29.82"   Gusts: NA
Location:  42.87°N, 84.9°W
Report Text: KY70 231333Z AUTO 19011KT 10SM BKN032 OVC041 09/07 A2982 RMK AO2 T00900072
Loading
Personal Weather Stations






























Interactive Weather Map New forecast layout! Learn more

10-Day Weather Forecast

Advertisements
Track Severe Weather on mobile